Airfield :
LOGIN :

Register | Disclaimer

   EN    FR    IT 

 










Legend :    VFR   Marginal VFR   IFR   Intensive IFR   Very Intensive IFR
Visi :
Ceiling :
>= 8 km
>= 3000ft
5 to 8 km
1000 to 3000 ft
1500m to 5 km
500 to 1000 ft
800 to 1500m
200 to 500 ft
< 800m
< 200 ft
Symbols :   Thunderstorms  Fog  Heavy snow  Heavy precipitations  Wind > 20 kt
SIGMETs :     Misc.  Thunderstorms  Icing  Turbulence  Mountain Waves  Volcanic Ashes







- Airport Elevation : 499 ft
- IATA code : TLS
- Download approach charts


LFBO - Toulouse / Blagnac

CURRENT METAR :
  • 190130Z AUTO 29009KT 9000 -RA BKN020 BKN025 OVC033 06/05 Q1026

EXPIRED METARs :
  • 190100Z AUTO 28014KT 9999 -RA SCT016/// BKN022/// BKN033/// ///TCU 07/04 Q1026
  • 190030Z AUTO 29011KT 9999 FEW023/// BKN032/// BKN047/// ///TCU 08/04 Q1026
  • 190000Z AUTO 28010KT 9999 BKN034 BKN043 BKN052 08/04 Q1026
  • 182330Z AUTO 27010KT 9999 SCT037 BKN060 BKN074 08/04 Q1026
  • 182300Z AUTO 28011KT 9999 FEW037 SCT058 BKN074 08/04 Q1026 NOSIG

TAF TAF LFBO
Valid from the 18 at 18:00 until the 20 at 00:00 UTC


181700Z 1818/1924 30010KT 9999 SCT045 BKN070
PROB40
TEMPO 1818/1821 29015G25KT 4000 SHRA SCT030TCU
BECMG 1901/1903 OVC015
PROB40
TEMPO 1901/1907 4000 -RADZ OVC008
BECMG 1908/1910 SCT015 BKN035
TEMPO 1910/1916 SCT018TCU BKN045
BECMG 1919/1921 CAVOK
ATIS : +33 5 62 74 66 36
No reported NOTAMs for that airfield.



MET'MAP, your aeronautical weather chart ! - Copyright ORBIFLY December 2007 - Disclaimer

ORBIFLY MET'MAP TEAM :

Programming & Development : Alexandra Zaïnal
Concept & Development : Baudouin d'Aumeries
Co-Development & Prog : Marc-Olivier Méhu
Technical & hardware support : Manuel Goepfert

Contact : metmap@orbifly.com




SOURCES & CREDITS :

   NOAA